createdAt,value
2019-04-29T00:00:10.679Z,17.45
2019-04-29T00:02:39.863Z,17.80
2019-04-29T00:05:09.099Z,15.93
2019-04-29T00:07:38.338Z,15.90
2019-04-29T00:10:09.911Z,17.30
2019-04-29T00:12:39.266Z,20.23
2019-04-29T00:15:22.188Z,17.75
2019-04-29T00:17:53.035Z,16.73
2019-04-29T00:20:29.324Z,16.62
2019-04-29T00:22:58.502Z,14.78
2019-04-29T00:25:27.695Z,17.90
2019-04-29T00:27:56.925Z,16.97
2019-04-29T00:30:26.101Z,17.23
2019-04-29T00:32:55.407Z,16.65
2019-04-29T00:35:24.613Z,14.93
2019-04-29T00:38:10.711Z,15.72
2019-04-29T00:40:56.391Z,16.27
2019-04-29T00:43:29.783Z,14.28
2019-04-29T00:45:59.052Z,10.58
2019-04-29T00:48:28.232Z,12.40
2019-04-29T00:50:57.411Z,9.93
2019-04-29T00:53:27.382Z,11.60
2019-04-29T00:55:56.585Z,10.93
2019-04-29T00:58:25.886Z,11.60
2019-04-29T01:00:55.167Z,11.28
2019-04-29T01:03:24.379Z,11.10
2019-04-29T01:05:53.609Z,12.58
2019-04-29T01:08:22.777Z,15.03
2019-04-29T01:10:52.154Z,11.65
2019-04-29T01:13:21.360Z,10.45
2019-04-29T01:15:50.544Z,11.15
2019-04-29T01:18:19.854Z,12.20
2019-04-29T01:20:49.063Z,16.87
2019-04-29T01:23:18.215Z,13.13
2019-04-29T01:25:49.022Z,13.78
2019-04-29T01:28:28.869Z,13.88
2019-04-29T01:31:06.645Z,12.20
2019-04-29T01:33:35.904Z,11.57
2019-04-29T01:36:18.274Z,12.88
2019-04-29T01:38:49.350Z,11.45
2019-04-29T01:41:31.960Z,11.75
2019-04-29T01:44:05.130Z,11.12
2019-04-29T01:46:34.382Z,13.20
2019-04-29T01:49:03.594Z,15.72
2019-04-29T01:51:32.882Z,15.05
2019-04-29T01:54:02.058Z,16.20
2019-04-29T01:56:31.283Z,15.03
2019-04-29T01:59:00.461Z,12.68
2019-04-29T02:01:29.793Z,15.30
2019-04-29T02:03:59.084Z,14.65
2019-04-29T02:06:28.290Z,16.20
2019-04-29T02:08:57.672Z,15.53
2019-04-29T02:11:26.865Z,16.17
2019-04-29T02:13:56.049Z,15.88
2019-04-29T02:16:25.287Z,16.48
2019-04-29T02:18:54.836Z,14.10
2019-04-29T02:21:24.060Z,15.93
2019-04-29T02:24:12.674Z,15.20
2019-04-29T02:26:41.912Z,18.52
2019-04-29T02:29:11.107Z,17.57
2019-04-29T02:31:44.457Z,18.10
2019-04-29T02:34:13.700Z,18.52
2019-04-29T02:36:42.868Z,19.98
2019-04-29T02:39:30.250Z,20.75
2019-04-29T02:42:09.820Z,17.50
2019-04-29T02:44:39.053Z,17.92
2019-04-29T02:47:08.313Z,18.17
2019-04-29T02:49:37.493Z,21.52
2019-04-29T02:52:06.762Z,21.85
2019-04-29T02:54:35.958Z,19.77
2019-04-29T02:57:09.800Z,20.60
2019-04-29T02:59:40.628Z,21.10
2019-04-29T03:02:13.957Z,22.65
2019-04-29T03:04:50.927Z,21.65
2019-04-29T03:07:20.877Z,23.73
2019-04-29T03:09:50.163Z,21.50
2019-04-29T03:12:19.553Z,26.68
2019-04-29T03:14:48.739Z,24.43
2019-04-29T03:17:18.862Z,26.42
2019-04-29T03:22:35.080Z,22.05
2019-04-29T03:25:04.936Z,22.75
2019-04-29T03:27:34.129Z,27.82
2019-04-29T03:30:03.528Z,25.35
2019-04-29T03:32:32.805Z,24.52
2019-04-29T03:35:02.056Z,23.32
2019-04-29T03:37:31.473Z,23.80
2019-04-29T03:40:00.813Z,24.25
2019-04-29T03:42:31.716Z,23.42
2019-04-29T03:45:00.914Z,25.05
2019-04-29T03:47:30.093Z,25.43
2019-04-29T03:49:59.460Z,25.23
2019-04-29T03:52:28.774Z,24.18
2019-04-29T03:54:57.985Z,24.75
2019-04-29T03:57:28.994Z,27.20
2019-04-29T03:59:58.170Z,25.15
2019-04-29T04:02:33.572Z,25.92
2019-04-29T04:05:19.547Z,24.37
2019-04-29T04:07:58.939Z,16.32
2019-04-29T04:10:28.197Z,16.60
2019-04-29T04:12:57.398Z,10.72
2019-04-29T04:15:26.598Z,10.23
2019-04-29T04:18:06.364Z,8.80
2019-04-29T04:20:35.702Z,9.90
2019-04-29T04:23:05.068Z,15.80
2019-04-29T04:25:34.248Z,11.38
2019-04-29T04:28:03.432Z,9.45
2019-04-29T04:30:32.636Z,10.05
2019-04-29T04:33:01.838Z,12.60
2019-04-29T04:35:31.147Z,10.55
2019-04-29T04:38:00.305Z,9.78
2019-04-29T04:40:48.999Z,9.83
2019-04-29T04:43:18.154Z,8.80
2019-04-29T04:56:37.054Z,13.32
2019-04-29T05:13:34.195Z,9.28
2019-04-29T05:32:30.573Z,8.93
2019-04-29T05:38:03.229Z,10.05
2019-04-29T05:40:40.166Z,8.83
2019-04-29T05:43:14.270Z,10.80
2019-04-29T06:03:05.141Z,27.25
2019-04-29T06:05:34.331Z,27.15
2019-04-29T06:08:03.706Z,33.38
2019-04-29T06:10:37.442Z,31.95
2019-04-29T06:13:07.039Z,24.77
2019-04-29T06:15:36.512Z,27.23
2019-04-29T06:18:06.475Z,32.48
2019-04-29T06:20:35.672Z,29.90
2019-04-29T06:23:05.259Z,34.95
2019-04-29T06:28:03.113Z,33.42
2019-04-29T06:30:32.356Z,28.35
2019-04-29T06:33:02.212Z,33.00
2019-04-29T06:35:31.449Z,31.00
2019-04-29T06:38:00.899Z,35.23
2019-04-29T06:40:35.265Z,37.75
2019-04-29T06:43:01.941Z,32.90
2019-04-29T06:45:31.183Z,34.73
2019-04-29T06:51:03.587Z,42.20
2019-04-29T06:56:15.019Z,27.07
2019-04-29T07:04:14.160Z,30.43
2019-04-29T07:06:56.429Z,30.92
2019-04-29T07:09:14.314Z,29.72
2019-04-29T07:11:43.581Z,32.75
2019-04-29T07:14:12.812Z,28.73
2019-04-29T07:16:42.220Z,31.55
2019-04-29T07:19:11.427Z,32.03
2019-04-29T07:21:41.789Z,32.30
2019-04-29T07:24:11.653Z,34.88
2019-04-29T07:26:40.906Z,34.43
2019-04-29T07:29:10.112Z,33.40
2019-04-29T07:31:39.525Z,33.83
2019-04-29T07:34:09.251Z,34.45
2019-04-29T07:36:38.535Z,32.85
2019-04-29T07:39:12.751Z,35.78
2019-04-29T07:41:44.414Z,36.80
2019-04-29T07:44:18.272Z,30.60
2019-04-29T07:46:56.675Z,29.63
2019-04-29T07:55:20.249Z,34.78
2019-04-29T07:57:52.125Z,38.27
2019-04-29T08:00:33.028Z,31.35
2019-04-29T08:03:03.846Z,35.73
2019-04-29T08:05:35.219Z,28.25
2019-04-29T08:08:04.834Z,27.77
2019-04-29T08:10:34.256Z,31.33
2019-04-29T08:13:03.770Z,34.10
2019-04-29T08:15:36.885Z,36.28
2019-04-29T08:18:06.834Z,28.95
2019-04-29T08:20:35.442Z,27.22
2019-04-29T08:23:06.357Z,29.20
2019-04-29T08:25:35.612Z,25.95
2019-04-29T08:29:00.366Z,24.27
2019-04-29T08:42:59.976Z,25.10
2019-04-29T08:48:26.555Z,26.45
2019-04-29T08:50:55.780Z,30.00
2019-04-29T08:56:10.276Z,26.50
2019-04-29T08:58:39.486Z,31.60
2019-04-29T09:01:08.859Z,20.30
2019-04-29T09:03:40.641Z,19.12
2019-04-29T09:06:09.527Z,22.27
2019-04-29T09:08:53.477Z,19.98
2019-04-29T09:11:12.896Z,21.37
2019-04-29T09:13:41.632Z,21.65
2019-04-29T09:16:10.890Z,20.40
2019-04-29T09:18:40.318Z,21.57
2019-04-29T09:29:47.906Z,21.40
2019-04-29T09:32:17.318Z,23.60
2019-04-29T09:34:55.561Z,20.12
2019-04-29T09:37:22.901Z,21.75
2019-04-29T09:39:52.954Z,20.60
2019-04-29T09:42:31.012Z,23.05
2019-04-29T09:45:19.599Z,20.85
2019-04-29T09:47:48.809Z,22.27
2019-04-29T09:50:18.844Z,20.75
2019-04-29T09:52:48.133Z,22.32
2019-04-29T09:55:18.947Z,21.00
2019-04-29T09:57:48.172Z,22.73
2019-04-29T10:00:27.703Z,22.70
2019-04-29T10:02:58.650Z,24.98
2019-04-29T10:05:29.573Z,22.02
2019-04-29T10:07:58.827Z,21.12
2019-04-29T10:10:28.268Z,22.05
2019-04-29T10:13:03.666Z,22.82
2019-04-29T10:15:40.701Z,19.95
2019-04-29T10:18:11.555Z,20.80
2019-04-29T10:20:51.515Z,22.15
2019-04-29T10:23:22.604Z,17.87
2019-04-29T10:25:55.871Z,23.87
2019-04-29T10:28:25.089Z,20.12
2019-04-29T10:30:54.316Z,17.48
2019-04-29T10:33:24.268Z,17.40
2019-04-29T10:35:53.590Z,18.65
2019-04-29T10:38:22.901Z,17.50
2019-04-29T10:40:56.551Z,18.90
2019-04-29T10:43:37.188Z,18.27
2019-04-29T10:46:08.161Z,17.73
2019-04-29T10:48:40.781Z,18.57
2019-04-29T10:51:11.867Z,16.90
2019-04-29T10:53:41.141Z,17.48
2019-04-29T10:56:10.527Z,18.32
2019-04-29T10:58:40.029Z,21.45
2019-04-29T11:01:39.618Z,16.97
2019-04-29T11:04:09.145Z,14.33
2019-04-29T11:06:38.421Z,17.50
2019-04-29T11:09:29.629Z,17.25
2019-04-29T11:12:23.064Z,17.60
2019-04-29T11:21:20.744Z,20.32
2019-04-29T11:26:29.020Z,16.42
2019-04-29T11:28:59.648Z,16.32
2019-04-29T11:31:29.019Z,17.15
2019-04-29T11:34:05.636Z,16.45
2019-04-29T11:36:38.963Z,18.75
2019-04-29T11:39:09.002Z,15.28
2019-04-29T11:41:39.570Z,14.98
2019-04-29T11:44:08.872Z,15.18
2019-04-29T11:46:38.773Z,15.13
2019-04-29T11:49:08.759Z,15.15
2019-04-29T11:52:05.047Z,15.98
2019-04-29T11:54:17.945Z,16.23
2019-04-29T12:08:15.989Z,15.53
2019-04-29T12:13:58.835Z,16.45
2019-04-29T12:28:57.344Z,12.13
2019-04-29T12:31:49.444Z,13.35
2019-04-29T12:34:27.646Z,10.68
2019-04-29T12:36:58.428Z,11.75
2019-04-29T12:39:45.053Z,9.48
2019-04-29T12:54:30.102Z,7.83
2019-04-29T12:57:23.369Z,10.53
2019-04-29T13:03:21.886Z,8.63
2019-04-29T13:06:23.083Z,8.20
2019-04-29T13:08:51.102Z,7.60
2019-04-29T13:39:08.275Z,10.23
2019-04-29T13:57:38.173Z,8.87
2019-04-29T14:00:11.696Z,8.70
2019-04-29T14:02:58.432Z,9.63
2019-04-29T14:05:19.634Z,10.98
2019-04-29T14:07:52.603Z,8.35
2019-04-29T14:10:23.022Z,11.10
2019-04-29T14:13:05.084Z,6.58
2019-04-29T14:15:23.415Z,6.65
2019-04-29T14:17:52.791Z,10.88
2019-04-29T14:20:22.150Z,7.33
2019-04-29T14:22:51.527Z,7.65
2019-04-29T14:25:20.772Z,6.35
2019-04-29T14:27:50.119Z,6.45
2019-04-29T14:30:21.063Z,8.23
2019-04-29T14:32:52.371Z,5.08
2019-04-29T14:35:25.820Z,6.75
2019-04-29T14:37:59.930Z,6.55
2019-04-29T14:40:26.127Z,6.40
2019-04-29T14:43:07.570Z,5.08
2019-04-29T14:45:45.006Z,5.85
2019-04-29T14:48:16.000Z,5.40
2019-04-29T14:50:49.602Z,6.80
2019-04-29T14:53:27.720Z,4.90
2019-04-29T14:55:57.264Z,7.30
2019-04-29T14:58:27.284Z,5.30
2019-04-29T15:00:58.724Z,5.87
2019-04-29T15:03:30.224Z,5.03
2019-04-29T15:05:59.628Z,5.78
2019-04-29T15:08:32.022Z,5.35
2019-04-29T15:11:04.113Z,6.75
2019-04-29T15:13:33.046Z,6.83
2019-04-29T15:16:09.677Z,5.47
2019-04-29T15:18:53.559Z,5.65
2019-04-29T15:21:32.028Z,6.47
2019-04-29T15:23:56.642Z,5.40
2019-04-29T15:26:26.224Z,6.90
2019-04-29T15:28:56.229Z,4.60
2019-04-29T15:31:26.059Z,7.92
2019-04-29T15:33:55.282Z,3.98
2019-04-29T15:36:26.282Z,5.80
2019-04-29T15:39:09.024Z,6.47
2019-04-29T15:41:30.984Z,5.28
2019-04-29T15:44:07.212Z,4.55
2019-04-29T15:46:45.153Z,6.05
2019-04-29T15:49:00.651Z,11.43
2019-04-29T15:51:29.880Z,5.12
2019-04-29T15:53:59.179Z,7.30
2019-04-29T15:56:33.383Z,5.97
2019-04-29T15:59:07.723Z,5.30
2019-04-29T16:01:30.959Z,6.72
2019-04-29T16:04:02.084Z,6.62
2019-04-29T16:06:40.182Z,8.88
2019-04-29T16:09:09.365Z,4.65
2019-04-29T16:11:40.366Z,6.28
2019-04-29T16:14:14.504Z,5.35
2019-04-29T16:16:43.898Z,7.00
2019-04-29T16:19:13.189Z,8.08
2019-04-29T16:21:42.671Z,3.98
2019-04-29T16:24:25.743Z,5.33
2019-04-29T16:26:43.681Z,6.58
2019-04-29T16:29:15.418Z,6.27
2019-04-29T16:31:44.021Z,4.70
2019-04-29T16:34:13.368Z,6.47
2019-04-29T16:36:43.794Z,5.25
2019-04-29T16:39:13.497Z,5.08
2019-04-29T16:41:58.020Z,4.83
2019-04-29T16:44:35.614Z,5.60
2019-04-29T16:46:55.607Z,6.45
2019-04-29T16:49:24.916Z,5.33
2019-04-29T16:51:55.817Z,4.87
2019-04-29T16:54:28.426Z,5.87
2019-04-29T16:56:56.233Z,4.97
2019-04-29T16:59:25.459Z,6.53
2019-04-29T17:01:54.795Z,9.75
2019-04-29T17:04:24.128Z,4.95
2019-04-29T17:07:11.841Z,5.65
2019-04-29T17:09:41.759Z,5.78
2019-04-29T17:12:11.563Z,6.25
2019-04-29T17:15:02.206Z,7.30
2019-04-29T17:17:13.408Z,5.28
2019-04-29T17:19:42.594Z,5.05
2019-04-29T17:22:25.476Z,4.70
2019-04-29T17:24:43.524Z,5.58
2019-04-29T17:27:23.545Z,5.65
2019-04-29T17:30:07.988Z,7.95
2019-04-29T17:32:54.348Z,3.58
2019-04-29T17:37:55.332Z,6.62
2019-04-29T17:40:25.240Z,8.53
2019-04-29T17:42:56.203Z,9.08
2019-04-29T17:45:30.577Z,6.22
2019-04-29T17:48:18.370Z,7.78
2019-04-29T17:50:53.370Z,6.53
2019-04-29T17:53:35.336Z,8.35
2019-04-29T17:56:14.987Z,8.18
2019-04-29T17:58:53.877Z,7.12
2019-04-29T18:01:43.393Z,6.72
2019-04-29T18:04:30.335Z,8.48
2019-04-29T18:07:12.219Z,11.43
2019-04-29T18:09:49.069Z,8.55
2019-04-29T18:12:19.938Z,8.95
2019-04-29T18:14:49.194Z,7.78
2019-04-29T18:17:27.049Z,6.75
2019-04-29T18:19:55.100Z,6.97
2019-04-29T18:22:35.313Z,7.33
2019-04-29T18:25:15.008Z,8.55
2019-04-29T18:27:49.019Z,9.73
2019-04-29T18:30:19.525Z,8.83
2019-04-29T18:32:48.460Z,9.13
2019-04-29T18:35:18.105Z,10.20
2019-04-29T18:37:47.772Z,9.30
2019-04-29T18:40:17.295Z,8.30
2019-04-29T18:42:48.553Z,8.20
2019-04-29T18:45:17.592Z,7.50
2019-04-29T18:47:50.213Z,9.00
2019-04-29T18:50:22.152Z,9.28
2019-04-29T18:52:52.191Z,10.88
2019-04-29T18:55:21.559Z,9.38
2019-04-29T18:57:51.467Z,12.70
2019-04-29T19:00:22.182Z,10.28
2019-04-29T19:02:57.033Z,8.60
2019-04-29T19:05:32.288Z,11.20
2019-04-29T19:08:11.470Z,7.72
2019-04-29T19:10:34.346Z,9.53
2019-04-29T19:13:07.114Z,12.13
2019-04-29T19:15:35.445Z,9.68
2019-04-29T19:18:07.606Z,10.60
2019-04-29T19:20:36.011Z,10.25
2019-04-29T19:25:35.419Z,10.72
2019-04-29T19:28:12.726Z,14.93
2019-04-29T19:30:37.491Z,12.53
2019-04-29T19:33:09.048Z,14.13
2019-04-29T19:35:38.833Z,13.40
2019-04-29T19:38:12.443Z,12.80
2019-04-29T19:40:42.441Z,10.70
2019-04-29T19:43:17.397Z,12.95
2019-04-29T19:45:44.655Z,12.65
2019-04-29T19:48:13.039Z,12.63
2019-04-29T19:50:42.948Z,13.20
2019-04-29T19:53:12.852Z,16.25
2019-04-29T19:55:43.269Z,12.30
2019-04-29T19:58:14.552Z,11.35
2019-04-29T20:00:47.351Z,10.95
2019-04-29T20:03:24.399Z,10.80
2019-04-29T20:05:53.600Z,11.22
2019-04-29T20:08:46.256Z,10.10
2019-04-29T20:11:11.048Z,13.05
2019-04-29T20:13:31.443Z,12.63
2019-04-29T20:16:13.130Z,17.17
2019-04-29T20:19:01.903Z,11.48
2019-04-29T20:21:37.439Z,11.43
2019-04-29T20:24:09.397Z,9.83
2019-04-29T20:26:38.126Z,11.70
2019-04-29T20:29:07.738Z,10.40
2019-04-29T20:31:38.993Z,9.38
2019-04-29T20:34:08.235Z,15.78
2019-04-29T20:36:41.113Z,13.05
2019-04-29T20:39:15.114Z,12.63
2019-04-29T20:41:44.428Z,11.05
2019-04-29T20:44:12.157Z,11.30
2019-04-29T20:46:51.723Z,11.55
2019-04-29T20:49:12.686Z,10.68
2019-04-29T20:51:49.753Z,10.65
2019-04-29T20:54:20.343Z,12.78
2019-04-29T20:57:01.336Z,13.10
2019-04-29T20:59:20.773Z,15.20
2019-04-29T21:01:56.869Z,12.65
2019-04-29T21:04:32.036Z,12.20
2019-04-29T21:07:00.486Z,11.78
2019-04-29T21:09:30.151Z,12.75
2019-04-29T21:12:03.017Z,14.80
2019-04-29T21:14:38.155Z,12.65
2019-04-29T21:17:10.813Z,12.68
2019-04-29T21:19:38.802Z,16.87
2019-04-29T21:22:08.356Z,14.55
2019-04-29T21:24:39.096Z,14.33
2019-04-29T21:27:08.442Z,11.83
2019-04-29T21:29:37.753Z,11.65
2019-04-29T21:32:07.554Z,13.28
2019-04-29T21:34:45.266Z,14.63
2019-04-29T21:37:21.927Z,11.53
2019-04-29T21:39:55.256Z,13.68
2019-04-29T21:42:29.677Z,14.05
2019-04-29T21:44:58.580Z,12.28
2019-04-29T21:47:41.703Z,14.95
2019-04-29T21:50:00.162Z,12.45
2019-04-29T21:52:29.448Z,9.83
2019-04-29T21:54:58.697Z,10.50
2019-04-29T21:57:28.148Z,12.05
2019-04-29T21:59:57.356Z,10.32
2019-04-29T22:02:27.637Z,14.35
2019-04-29T22:04:57.333Z,9.48
2019-04-29T22:07:26.913Z,9.77
2019-04-29T22:09:56.146Z,9.45
2019-04-29T22:12:25.820Z,12.80
2019-04-29T22:14:56.450Z,10.13
2019-04-29T22:17:32.722Z,8.48
2019-04-29T22:20:03.820Z,10.58
2019-04-29T22:22:30.688Z,10.85
2019-04-29T22:25:05.786Z,12.20
2019-04-29T22:27:34.170Z,8.45
2019-04-29T22:30:01.634Z,9.45
2019-04-29T22:32:31.155Z,8.05
2019-04-29T22:35:01.627Z,7.80
2019-04-29T22:40:03.112Z,8.25
2019-04-29T22:42:35.498Z,7.65
2019-04-29T22:45:06.522Z,6.95
2019-04-29T22:47:35.993Z,8.08
2019-04-29T22:50:05.736Z,6.08
2019-04-29T22:52:36.709Z,7.80
2019-04-29T22:55:07.399Z,8.80
2019-04-29T22:57:36.746Z,7.70
2019-04-29T23:00:08.275Z,7.28
2019-04-29T23:02:37.663Z,7.25
2019-04-29T23:05:07.440Z,8.05
2019-04-29T23:07:37.803Z,9.53
2019-04-29T23:10:08.349Z,6.95
2019-04-29T23:12:38.186Z,6.20
2019-04-29T23:15:08.121Z,5.90
2019-04-29T23:17:38.017Z,6.70
2019-04-29T23:20:09.769Z,7.80
2019-04-29T23:22:46.747Z,6.83
2019-04-29T23:25:21.830Z,9.28
2019-04-29T23:27:52.673Z,7.00
2019-04-29T23:30:22.102Z,8.65
2019-04-29T23:32:51.570Z,9.50
2019-04-29T23:35:20.950Z,7.95
2019-04-29T23:37:50.736Z,9.05
2019-04-29T23:40:20.219Z,8.78
2019-04-29T23:42:49.801Z,12.10
2019-04-29T23:45:21.157Z,10.10
2019-04-29T23:47:50.524Z,7.97
2019-04-29T23:50:20.246Z,11.07
2019-04-29T23:52:51.812Z,9.63
2019-04-29T23:55:27.408Z,10.50
2019-04-29T23:57:55.584Z,9.78
